Kezdőlap
METAR-TAF:

METAR-TAF

Repülőterek :

Magnitogorsk, Oroszország

földrajzi szélesség: 53-23-36N, földrajzi hosszúság: 058-45-24E, magasság: 436 m

Jelenlegi meteorológiai megfigyelések

A jelentés 18 perccel ezelõtt készült, 06:30 UTC
Szélcsend
Hőmérséklet 16°C
Páratartalom 51%
Légköri nyomás 1033 hPa
Látótávolság 10 km, vagy több

METAR: USCM 300630Z 00000MPS 9999 NSC 16/06 Q1033 R36/090060 NOSIG RMK QFE736

Idő: 11:48 (06:48 UTC)

Előrejelzés

A jelentés 1 órával és 48 perccel ezelõtt készült, 05:00 UTC
Az előrejelzés 30-én 06 óra UTC és 30-én 15 óra UTC között érvényes
Északi szél 6 kt széllökések: 16 kt
Látótávolság: 6000 m
Szórványos felhőzet 3000 lábon

TAF: USCM 300500Z 3006/3015 01003G08MPS 6000 SCT030

Meteorológiai megfigyelések és előrejelzések több, mint 4000 repülőtéren (METAR és TAF jelentéseket).

A térképen piros és sárga pontok jelzik az elérhető meteorológiai állomásokat.

Mozgassa az egeret a pont fölött, hogy megjelenjen az állomás neve.

Azután kattintson az időjárási megfigyelések és előrejelzések megtekintéséhez.

A térkép megváltoztatása: kattintson a fekete keresztel jelölt zöld gombra ráközelítéshez, a vonallal jelölt zöld gombra távolításhoz, vagy a zöld nyilakra a szomszédos térképek eléréséhez.


METAR-TAF: